Time;durP1;ratioP1;P1;durP2;ratioP2;P2;SDS_P1;SDS_P2;PMS_P1;PMS_P2;Temp;Humidity;BMP_temperature;BMP_pressure;BME280_temperature;BME280_humidity;BME280_pressure;Samples;Min_cycle;Max_cycle;Signal;HPM_P1;HPM_P2
2021/10/15 00:00:31;;;;;;;15.50;13.80;;;;;;;6.10;73.78;101071.69;1712261;82;21011;-60
2021/10/15 00:03:00;;;;;;;15.57;13.83;;;;;;;6.05;74.14;101069.48;1691231;82;21368;-61
2021/10/15 00:05:25;;;;;;;17.60;14.43;;;;;;;5.94;74.09;101074.39;1697228;82;21814;-61
2021/10/15 00:07:51;;;;;;;17.60;12.93;;;;;;;5.86;74.46;101074.27;1710716;82;21252;-60
2021/10/15 00:10:18;;;;;;;15.58;13.08;;;;;;;5.84;74.57;101070.44;1706917;82;21133;-60
2021/10/15 00:12:44;;;;;;;15.35;13.58;;;;;;;5.90;74.34;101072.18;1695545;82;21677;-62
2021/10/15 00:15:10;;;;;;;16.10;13.83;;;;;;;5.92;74.49;101065.77;1707093;82;21041;-61
2021/10/15 00:17:37;;;;;;;16.53;13.87;;;;;;;5.92;74.46;101072.38;1702702;82;21904;-61
2021/10/15 00:20:05;;;;;;;16.25;13.00;;;;;;;5.80;74.78;101063.75;1702067;82;21049;-59
2021/10/15 00:22:32;;;;;;;19.03;13.60;;;;;;;5.86;75.03;101067.66;1705934;82;21305;-63
2021/10/15 00:24:59;;;;;;;14.47;13.00;;;;;;;5.84;74.97;101064.31;1706512;82;21093;-58
2021/10/15 00:27:26;;;;;;;18.43;14.00;;;;;;;5.81;74.95;101065.41;1704270;82;21030;-59
2021/10/15 00:29:52;;;;;;;15.30;12.78;;;;;;;5.82;74.90;101060.48;1706561;82;21069;-62
2021/10/15 00:32:18;;;;;;;13.65;12.25;;;;;;;5.89;74.69;101058.09;1702224;82;21049;-59
2021/10/15 00:34:44;;;;;;;14.03;12.30;;;;;;;5.91;74.61;101053.98;1702823;82;21239;-60
2021/10/15 00:37:10;;;;;;;16.82;13.62;;;;;;;5.92;74.74;101054.35;1706104;82;21079;-61
2021/10/15 00:39:37;;;;;;;16.70;13.67;;;;;;;5.87;74.84;101052.11;1707240;82;21930;-62
2021/10/15 00:42:04;;;;;;;14.50;12.98;;;;;;;5.76;74.92;101046.95;1700567;82;21018;-60
2021/10/15 00:44:36;;;;;;;14.87;12.70;;;;;;;5.77;74.96;101053.94;1713198;82;21283;-59
2021/10/15 00:47:02;;;;;;;15.03;13.13;;;;;;;5.73;75.13;101056.02;1709086;82;20998;-59
2021/10/15 00:49:28;;;;;;;16.87;13.53;;;;;;;5.70;75.18;101055.46;1697941;82;21356;-59
2021/10/15 00:51:54;;;;;;;21.82;13.25;;;;;;;5.72;75.12;101054.34;1719429;82;21010;-59
2021/10/15 00:54:20;;;;;;;17.95;13.83;;;;;;;5.78;74.82;101056.45;1710396;82;21846;-60
2021/10/15 00:56:47;;;;;;;18.07;13.88;;;;;;;5.80;74.78;101056.28;1708518;82;21078;-60
2021/10/15 00:59:15;;;;;;;16.30;13.77;;;;;;;5.76;74.89;101052.25;1710117;82;21054;-60
2021/10/15 01:01:41;;;;;;;19.10;14.60;;;;;;;5.69;75.02;101053.31;1706684;82;21127;-61
2021/10/15 01:04:08;;;;;;;18.10;16.13;;;;;;;5.65;75.31;101058.50;1689238;82;21905;-61
2021/10/15 01:06:36;;;;;;;18.57;15.97;;;;;;;5.62;75.55;101056.98;1699819;82;21175;-59
2021/10/15 01:09:04;;;;;;;18.30;15.13;;;;;;;5.60;75.63;101053.64;1699331;82;21022;-59
2021/10/15 01:11:30;;;;;;;20.30;14.10;;;;;;;5.65;75.38;101054.53;1702306;81;21034;-59
2021/10/15 01:13:56;;;;;;;17.65;14.80;;;;;;;5.73;74.98;101051.23;1703134;82;21086;-59
2021/10/15 01:16:29;;;;;;;21.70;15.20;;;;;;;5.70;74.79;101056.28;1689064;82;21014;-59
2021/10/15 01:18:59;;;;;;;18.33;14.90;;;;;;;5.59;74.82;101058.56;1696261;82;21389;-60
2021/10/15 01:21:26;;;;;;;19.97;15.10;;;;;;;5.52;75.15;101060.58;1708706;82;21303;-60
2021/10/15 01:23:53;;;;;;;16.70;14.90;;;;;;;5.44;75.31;101054.66;1711330;82;21774;-60
2021/10/15 01:26:19;;;;;;;19.67;15.70;;;;;;;5.39;75.31;101052.45;1709490;82;21015;-59
2021/10/15 01:28:45;;;;;;;;;;;;;;;5.33;75.39;101057.42;1716940;82;21021;-59
2021/10/15 01:31:11;;;;;;;16.47;14.07;;;;;;;5.32;75.33;101058.42;1708875;82;20130;-60
2021/10/15 01:33:38;;;;;;;23.13;16.17;;;;;;;5.33;75.20;101058.75;1708126;82;21106;-60
2021/10/15 01:36:04;;;;;;;21.75;16.32;;;;;;;5.35;75.25;101049.73;1700311;82;21059;-60
2021/10/15 01:38:30;;;;;;;20.10;15.60;;;;;;;5.33;75.60;101045.53;1699803;82;21042;-60
2021/10/15 01:40:57;;;;;;;23.83;16.45;;;;;;;5.26;75.78;101043.44;1700408;82;20996;-61
2021/10/15 01:43:27;;;;;;;19.10;16.20;;;;;;;5.21;75.83;101041.69;1702098;82;21804;-59
2021/10/15 01:45:54;;;;;;;20.50;16.73;;;;;;;5.17;75.92;101037.65;1728656;81;20993;-59
2021/10/15 01:48:22;;;;;;;18.33;15.50;;;;;;;5.13;76.01;101038.90;1735667;81;21906;-59
2021/10/15 01:50:50;;;;;;;20.13;15.63;;;;;;;5.14;75.88;101041.05;1741124;81;21048;-61
2021/10/15 01:53:18;;;;;;;19.37;16.43;;;;;;;5.21;75.61;101045.66;1743893;81;21540;-60
2021/10/15 01:55:44;;;;;;;24.20;16.50;;;;;;;5.12;75.58;101038.53;1734204;80;21082;-60
2021/10/15 01:58:11;;;;;;;20.80;16.60;;;;;;;5.12;75.76;101048.27;1713294;82;21053;-59
2021/10/15 02:00:38;;;;;;;22.05;17.50;;;;;;;5.02;75.69;101043.80;1714907;82;20995;-61
2021/10/15 02:03:05;;;;;;;21.23;17.77;;;;;;;4.91;75.77;101046.55;1710706;82;21011;-58
2021/10/15 02:05:32;;;;;;;19.47;16.10;;;;;;;4.83;75.91;101043.25;1706179;82;21081;-60
2021/10/15 02:07:58;;;;;;;19.25;16.55;;;;;;;4.84;76.11;101046.26;1701030;82;21744;-59
2021/10/15 02:10:24;;;;;;;19.40;17.07;;;;;;;4.92;75.94;101050.05;1703128;82;21070;-61
2021/10/15 02:12:51;;;;;;;21.45;16.85;;;;;;;4.92;75.91;101056.65;1712810;81;21061;-60
2021/10/15 02:15:19;;;;;;;20.53;16.70;;;;;;;4.84;76.32;101060.79;1714580;82;21015;-60
2021/10/15 02:17:46;;;;;;;21.93;17.87;;;;;;;4.81;76.55;101063.69;1678841;84;21042;-59
2021/10/15 02:20:15;;;;;;;20.75;17.48;;;;;;;4.79;76.64;101056.88;1660629;85;21012;-60
2021/10/15 02:22:45;;;;;;;21.37;17.00;;;;;;;4.77;76.79;101060.96;1668880;85;21733;-59
2021/10/15 02:25:14;;;;;;;22.87;17.57;;;;;;;4.79;76.57;101061.66;1664730;85;21210;-59
2021/10/15 02:27:41;;;;;;;25.20;18.30;;;;;;;4.86;76.38;101061.48;1661284;85;21419;-59
2021/10/15 02:30:11;;;;;;;25.07;18.67;;;;;;;4.86;76.38;101060.66;1668808;85;21196;-59
2021/10/15 02:32:38;;;;;;;22.37;18.80;;;;;;;4.77;76.65;101061.45;1663428;85;21892;-60
2021/10/15 02:35:06;;;;;;;25.43;19.37;;;;;;;4.71;76.96;101064.60;1686056;83;21830;-61
2021/10/15 02:37:34;;;;;;;21.80;18.63;;;;;;;4.66;77.26;101062.38;1681991;84;20990;-59
2021/10/15 02:40:00;;;;;;;22.73;17.60;;;;;;;4.71;77.59;101066.78;1677786;84;21105;-59
2021/10/15 02:42:26;;;;;;;24.95;19.40;;;;;;;4.80;77.24;101064.67;1677880;84;21097;-61
2021/10/15 02:44:52;;;;;;;21.17;18.25;;;;;;;4.85;77.32;101057.16;1675672;84;21034;-58
2021/10/15 02:47:18;;;;;;;27.13;21.27;;;;;;;4.86;77.35;101054.88;1676723;84;21304;-61
2021/10/15 02:49:45;;;;;;;24.67;19.75;;;;;;;4.81;77.50;101050.48;1673843;84;22087;-61
2021/10/15 02:52:11;;;;;;;28.15;21.00;;;;;;;4.80;77.67;101051.47;1692918;83;21815;-60
2021/10/15 02:54:37;;;;;;;25.97;19.52;;;;;;;4.78;77.87;101048.09;1674593;84;21040;-62
2021/10/15 02:57:04;;;;;;;26.73;19.05;;;;;;;4.74;78.07;101047.19;1678186;82;21008;-59
2021/10/15 02:59:30;;;;;;;21.37;17.25;;;;;;;4.71;78.25;101047.44;1658290;84;21024;-61
2021/10/15 03:01:56;;;;;;;;;;;;;;;4.68;78.82;101048.06;1692090;83;21069;-59
2021/10/15 03:04:23;;;;;;;24.10;17.83;;;;;;;4.62;79.15;101049.91;1671591;85;20161;-59
2021/10/15 03:06:50;;;;;;;23.80;19.20;;;;;;;4.53;79.82;101046.74;1669199;84;21788;-60
2021/10/15 03:09:16;;;;;;;27.75;21.52;;;;;;;4.42;80.14;101050.29;1667399;84;21605;-60
2021/10/15 03:11:43;;;;;;;26.73;20.17;;;;;;;4.34;80.36;101050.61;1674392;84;21007;-59
2021/10/15 03:14:09;;;;;;;23.25;19.12;;;;;;;4.24;80.84;101050.06;1667796;84;21082;-61
2021/10/15 03:16:37;;;;;;;26.17;18.73;;;;;;;4.23;80.99;101054.98;1677534;83;21036;-64
2021/10/15 03:19:03;;;;;;;21.40;18.37;;;;;;;4.24;80.77;101053.20;1679710;83;21163;-63
2021/10/15 03:21:29;;;;;;;24.12;19.45;;;;;;;4.24;80.86;101049.23;1662464;84;22589;-63
2021/10/15 03:23:56;;;;;;;24.87;18.67;;;;;;;4.21;81.00;101054.77;1631227;85;21108;-63
2021/10/15 03:26:24;;;;;;;25.47;20.30;;;;;;;4.13;81.28;101052.77;1643682;85;23694;-60
2021/10/15 03:28:52;;;;;;;24.20;20.10;;;;;;;4.08;81.42;101054.95;1654430;84;21157;-60
2021/10/15 03:31:18;;;;;;;24.45;19.82;;;;;;;4.04;81.60;101055.69;1655124;84;22042;-61
2021/10/15 03:33:45;;;;;;;28.80;19.95;;;;;;;4.06;81.57;101052.44;1654399;84;23203;-60
2021/10/15 03:36:11;;;;;;;23.55;17.37;;;;;;;4.13;81.26;101054.59;1655619;84;21574;-61
2021/10/15 03:38:37;;;;;;;25.25;19.17;;;;;;;4.00;81.11;101027.07;1654719;84;22394;-61
2021/10/15 03:41:03;;;;;;;24.37;19.73;;;;;;;4.20;81.01;101051.76;1655081;84;21603;-60
2021/10/15 03:43:29;;;;;;;23.22;19.40;;;;;;;4.20;80.86;101050.44;1654730;84;21124;-61
2021/10/15 03:45:55;;;;;;;25.30;20.08;;;;;;;4.17;81.01;101048.08;1653914;84;21220;-61
2021/10/15 03:48:21;;;;;;;25.12;19.98;;;;;;;4.15;80.99;101049.52;1654970;84;21408;-61
2021/10/15 03:50:48;;;;;;;25.40;19.23;;;;;;;4.13;81.03;101047.98;1653859;84;21136;-61
2021/10/15 03:53:14;;;;;;;24.63;19.50;;;;;;;4.09;80.99;101046.91;1632673;84;21178;-62
2021/10/15 03:55:40;;;;;;;25.80;18.92;;;;;;;4.16;80.75;101052.98;1655261;84;21405;-61
2021/10/15 03:58:06;;;;;;;26.35;20.68;;;;;;;4.14;80.59;101057.56;1654508;84;21227;-62
2021/10/15 04:00:36;;;;;;;28.13;21.00;;;;;;;4.12;80.71;101059.00;1655070;84;21186;-62
2021/10/15 04:03:02;;;;;;;26.97;20.70;;;;;;;4.04;80.85;101067.56;1653643;84;21350;-62
2021/10/15 04:05:28;;;;;;;30.57;23.30;;;;;;;4.01;81.02;101071.80;1655455;84;21241;-60
2021/10/15 04:07:55;;;;;;;31.80;21.60;;;;;;;3.99;80.93;101062.31;1655638;84;21439;-63
2021/10/15 04:10:21;;;;;;;27.85;20.75;;;;;;;4.00;80.78;101067.47;1655211;85;21840;-63
2021/10/15 04:12:47;;;;;;;29.15;20.43;;;;;;;4.10;80.51;101062.25;1655666;84;21256;-63
2021/10/15 04:15:13;;;;;;;;;;;;;;;4.15;80.17;101063.20;1658324;84;21141;-63
2021/10/15 04:17:39;;;;;;;27.07;19.30;;;;;;;4.14;80.20;101060.20;1654071;84;20681;-62
2021/10/15 04:20:08;;;;;;;25.27;20.37;;;;;;;4.04;80.64;101060.14;1655401;85;21210;-59
2021/10/15 04:22:34;;;;;;;28.10;21.43;;;;;;;4.00;80.81;101061.36;1661445;84;21611;-60
2021/10/15 04:25:01;;;;;;;30.45;20.80;;;;;;;3.97;80.90;101057.65;1660052;84;21094;-67
2021/10/15 04:27:27;;;;;;;29.20;21.82;;;;;;;4.02;80.93;101063.39;1660031;85;21132;-64
2021/10/15 04:29:53;;;;;;;26.65;20.50;;;;;;;4.14;80.85;101077.34;1658644;84;21196;-64
2021/10/15 04:32:21;;;;;;;29.37;20.33;;;;;;;4.26;80.70;101078.48;1654922;84;21189;-59
2021/10/15 04:34:47;;;;;;;26.40;20.75;;;;;;;4.33;80.64;101072.19;1656160;84;21862;-62
2021/10/15 04:37:13;;;;;;;26.37;22.30;;;;;;;4.35;80.60;101081.30;1655147;84;21195;-60
2021/10/15 04:39:40;;;;;;;28.83;20.95;;;;;;;4.35;80.81;101083.48;1654800;84;21212;-60
2021/10/15 04:42:06;;;;;;;29.70;21.02;;;;;;;4.44;80.97;101083.16;1647954;84;21128;-62
2021/10/15 04:44:32;;;;;;;26.62;20.70;;;;;;;4.62;80.54;101080.77;1654400;84;21163;-66
2021/10/15 04:46:59;;;;;;;26.70;22.37;;;;;;;4.93;79.89;101072.34;1654601;84;21394;-60
2021/10/15 04:49:25;;;;;;;24.82;20.17;;;;;;;5.33;79.01;101079.90;1654938;84;21221;-61
2021/10/15 04:51:51;;;;;;;28.15;20.25;;;;;;;5.70;77.67;101077.45;1654934;84;22113;-63
2021/10/15 04:54:17;;;;;;;24.12;21.15;;;;;;;5.97;76.70;101074.63;1653856;84;21222;-61
2021/10/15 04:56:43;;;;;;;30.68;22.37;;;;;;;6.26;74.91;101073.77;1655520;84;21201;-64
2021/10/15 04:59:09;;;;;;;29.52;21.60;;;;;;;6.43;73.27;101074.36;1655617;84;21420;-64
2021/10/15 05:01:38;;;;;;;29.67;22.27;;;;;;;6.33;72.39;101072.20;1655875;84;21848;-61
2021/10/15 05:04:04;;;;;;;28.52;21.48;;;;;;;6.12;72.75;101079.86;1655224;84;21212;-63
2021/10/15 05:06:31;;;;;;;27.90;19.45;;;;;;;5.99;73.25;101077.50;1656657;84;22145;-64
2021/10/15 05:11:34;;;;;;;28.03;21.90;;;;;;;5.53;74.41;101084.75;1655125;84;21216;-60
2021/10/15 05:14:01;;;;;;;27.67;20.50;;;;;;;5.30;75.45;101090.27;1654838;84;22039;-62
2021/10/15 05:16:27;;;;;;;25.40;19.97;;;;;;;5.15;76.03;101095.09;1654679;84;21104;-62
2021/10/15 05:18:54;;;;;;;27.83;20.80;;;;;;;5.18;76.22;101096.16;1653328;84;23135;-59
2021/10/15 05:21:22;;;;;;;26.07;20.23;;;;;;;5.23;76.20;101097.89;1654468;84;21155;-61
2021/10/15 05:23:48;;;;;;;30.08;22.13;;;;;;;5.19;76.26;101090.38;1645546;85;21196;-62
2021/10/15 05:26:16;;;;;;;28.90;21.82;;;;;;;5.11;76.53;101089.73;1654674;85;21118;-61
2021/10/15 05:28:42;;;;;;;31.10;24.07;;;;;;;5.08;76.75;101099.23;1653641;84;21980;-63
2021/10/15 05:31:08;;;;;;;28.25;21.02;;;;;;;5.05;76.91;101102.16;1653436;84;21226;-61
2021/10/15 05:33:36;;;;;;;32.27;22.03;;;;;;;5.10;76.98;101099.94;1655291;84;21475;-62
2021/10/15 05:36:02;;;;;;;29.10;21.87;;;;;;;5.24;76.50;101104.03;1618759;86;21128;-61
2021/10/15 05:38:28;;;;;;;35.63;24.95;;;;;;;5.29;76.33;101104.94;1654589;84;21150;-64
2021/10/15 05:40:54;;;;;;;32.10;23.52;;;;;;;5.23;76.05;101104.50;1656053;85;21061;-64
2021/10/15 05:43:20;;;;;;;33.85;24.37;;;;;;;5.23;76.24;101098.38;1624991;87;21069;-62
2021/10/15 05:45:47;;;;;;;30.70;24.07;;;;;;;5.23;76.12;101104.50;1656879;84;22190;-62
2021/10/15 05:48:13;;;;;;;29.35;21.57;;;;;;;5.30;75.77;101100.02;1648825;85;21970;-63
2021/10/15 05:50:40;;;;;;;32.85;25.20;;;;;;;5.63;75.49;101098.34;1644166;85;21849;-62
2021/10/15 05:53:10;;;;;;;36.83;29.50;;;;;;;6.23;73.80;101093.41;1659089;84;21297;-63
2021/10/15 06:00:46;;;;;;;30.73;26.40;;;;;;;8.11;65.83;101088.68;1651214;84;21416;-64
2021/10/15 06:03:12;;;;;;;32.50;25.48;;;;;;;7.37;65.56;100960.18;1648999;85;21214;-64
2021/10/15 06:16:37;;;;;;;29.83;24.07;;;;;;;7.28;67.82;101090.20;1688912;82;21048;-62
2021/10/15 06:19:08;;;;;;;33.08;23.80;;;;;;;7.20;67.79;101090.94;1683354;82;21081;-61
2021/10/15 06:21:34;;;;;;;32.83;24.43;;;;;;;7.04;68.29;101094.71;1675742;82;21058;-62
2021/10/15 06:24:01;;;;;;;33.18;23.25;;;;;;;6.88;69.15;101088.72;1713909;81;21024;-63
2021/10/15 06:26:27;;;;;;;30.87;24.03;;;;;;;6.85;69.37;101098.28;1718939;81;21148;-65
2021/10/15 06:28:53;;;;;;;32.28;22.55;;;;;;;6.24;69.32;101007.23;1724866;81;21064;-64
2021/10/15 06:31:19;;;;;;;30.72;24.37;;;;;;;6.87;69.50;101096.31;1725226;81;21025;-64
2021/10/15 06:33:45;;;;;;;34.10;21.37;;;;;;;6.95;69.46;101091.97;1712634;81;21072;-64
2021/10/15 06:36:12;;;;;;;31.25;23.22;;;;;;;7.01;69.42;101087.90;1684192;83;21908;-65
2021/10/15 06:38:39;;;;;;;28.13;22.07;;;;;;;7.04;69.04;101094.71;1691489;84;21057;-64
2021/10/15 06:41:05;;;;;;;33.08;24.20;;;;;;;7.04;68.97;101092.89;1690049;83;21002;-64
2021/10/15 06:43:31;;;;;;;30.82;25.50;;;;;;;6.97;69.13;101093.16;1679077;83;21073;-65
2021/10/15 06:45:58;;;;;;;31.10;24.63;;;;;;;6.99;68.87;101097.81;1724159;81;21103;-60
2021/10/15 06:48:24;;;;;;;39.98;24.87;;;;;;;6.89;68.63;101108.43;1731776;81;21831;-63
2021/10/15 06:50:50;;;;;;;32.67;24.43;;;;;;;6.87;68.73;101095.82;1735603;81;21824;-63
2021/10/15 06:53:16;;;;;;;33.78;24.27;;;;;;;6.83;69.02;101093.95;1734495;81;21332;-62
2021/10/15 06:55:42;;;;;;;31.00;25.40;;;;;;;6.83;69.11;101091.80;1731552;81;21002;-62
2021/10/15 06:58:08;;;;;;;33.10;22.80;;;;;;;6.85;69.20;101087.18;1699887;82;21097;-65
2021/10/15 07:00:34;;;;;;;32.30;22.75;;;;;;;6.90;69.14;101089.41;1723975;81;21128;-66
2021/10/15 07:03:01;;;;;;;31.17;22.70;;;;;;;6.98;68.62;101087.68;1685431;82;21096;-63
2021/10/15 07:05:27;;;;;;;27.95;22.42;;;;;;;7.13;68.19;101089.36;1699738;82;21065;-64
2021/10/15 07:07:53;;;;;;;28.65;22.35;;;;;;;7.26;68.00;101090.34;1694410;82;21037;-65
2021/10/15 07:10:19;;;;;;;29.35;23.83;;;;;;;7.30;67.57;101091.70;1696660;82;21030;-62
2021/10/15 07:12:46;;;;;;;34.05;24.65;;;;;;;7.34;67.23;101090.42;1698642;83;21151;-63
2021/10/15 07:15:15;;;;;;;36.47;24.03;;;;;;;7.36;67.04;101086.30;1698339;83;20993;-61
2021/10/15 07:17:43;;;;;;;38.33;24.03;;;;;;;7.35;66.98;101090.78;1685787;83;21119;-62
2021/10/15 07:20:10;;;;;;;25.77;21.43;;;;;;;7.32;66.88;101086.27;1691977;83;21084;-62
2021/10/15 07:22:38;;;;;;;29.83;21.00;;;;;;;7.37;67.00;101090.14;1690907;83;21826;-64
2021/10/15 07:25:06;;;;;;;27.83;23.13;;;;;;;7.54;66.55;101088.49;1690097;83;21146;-63
2021/10/15 07:27:35;;;;;;;29.60;22.77;;;;;;;7.64;65.94;101087.09;1677025;83;21103;-64
2021/10/15 07:30:04;;;;;;;28.57;22.37;;;;;;;7.66;66.17;101082.97;1691451;83;21008;-63
2021/10/15 07:32:32;;;;;;;32.33;23.37;;;;;;;7.65;65.78;101092.75;1689981;83;21937;-64
2021/10/15 07:34:58;;;;;;;29.30;22.50;;;;;;;7.64;65.94;101083.11;1670684;83;21365;-62
2021/10/15 07:37:25;;;;;;;35.73;24.27;;;;;;;7.66;65.81;101090.43;1667084;84;21022;-63
2021/10/15 07:39:52;;;;;;;29.53;23.27;;;;;;;7.71;65.88;101084.69;1668015;84;21811;-64
2021/10/15 07:42:18;;;;;;;29.63;22.03;;;;;;;7.77;65.59;101089.38;1659448;84;21848;-63
2021/10/15 07:44:44;;;;;;;25.37;20.27;;;;;;;7.91;65.45;101089.33;1639339;84;21351;-63
2021/10/15 07:47:11;;;;;;;29.07;23.05;;;;;;;8.10;65.14;101093.63;1676526;83;21823;-63
2021/10/15 07:49:38;;;;;;;32.03;23.32;;;;;;;8.21;64.52;101079.29;1675459;83;21060;-65
2021/10/15 07:52:08;;;;;;;29.03;23.27;;;;;;;8.18;64.41;101075.95;1681175;83;21336;-62
2021/10/15 07:54:35;;;;;;;29.70;23.73;;;;;;;8.15;64.53;101080.23;1680850;83;21063;-62
2021/10/15 07:57:04;;;;;;;26.93;21.93;;;;;;;8.17;64.82;101072.13;1706752;82;21100;-62
2021/10/15 07:59:32;;;;;;;29.37;23.17;;;;;;;8.23;64.73;101079.49;1710539;82;21858;-62
2021/10/15 08:01:58;;;;;;;27.67;21.93;;;;;;;8.26;64.62;101074.36;1700466;83;21052;-65
2021/10/15 08:04:24;;;;;;;27.48;22.30;;;;;;;8.25;64.68;101073.53;1691229;83;21848;-62
2021/10/15 08:06:53;;;;;;;27.62;22.05;;;;;;;8.28;64.83;101064.41;1695408;83;21362;-62
2021/10/15 08:09:19;;;;;;;23.70;20.73;;;;;;;8.36;64.78;101074.61;1692909;83;21805;-64
2021/10/15 08:11:47;;;;;;;27.70;20.60;;;;;;;8.51;64.37;101072.24;1697963;83;21576;-63
2021/10/15 08:14:13;;;;;;;28.77;22.83;;;;;;;8.54;64.35;101071.09;1713910;82;21013;-63
2021/10/15 08:16:40;;;;;;;36.50;22.52;;;;;;;8.56;64.40;101069.10;1714326;82;20998;-64
2021/10/15 08:19:06;;;;;;;27.10;21.97;;;;;;;8.65;64.49;101067.34;1708877;82;21104;-63
2021/10/15 08:21:32;;;;;;;27.52;21.07;;;;;;;8.76;64.14;101061.75;1712618;82;21105;-64
2021/10/15 08:23:58;;;;;;;29.82;21.85;;;;;;;8.85;63.92;101056.78;1707929;82;20970;-62
2021/10/15 08:26:25;;;;;;;25.10;20.75;;;;;;;8.98;63.82;101056.34;1715449;82;21017;-63
2021/10/15 08:28:57;;;;;;;29.73;22.50;;;;;;;9.09;63.50;101056.05;1719590;82;21116;-64
2021/10/15 08:31:19;;;;;;;25.87;21.37;;;;;;;9.25;63.13;101055.28;1717810;82;21444;-62
2021/10/15 08:33:45;;;;;;;27.13;21.93;;;;;;;9.41;62.39;101049.66;1717377;82;21351;-63
2021/10/15 08:36:11;;;;;;;27.85;22.73;;;;;;;9.43;62.12;101033.86;1715585;82;21014;-62
2021/10/15 08:38:37;;;;;;;25.52;20.43;;;;;;;9.75;61.79;101051.69;1708004;82;21018;-64
2021/10/15 08:41:04;;;;;;;24.60;18.30;;;;;;;9.94;60.09;101044.38;1716435;82;21216;-63
2021/10/15 08:46:45;;;;;;;27.67;18.03;;;;;;;10.39;58.89;101028.88;1713755;79;22246;-64
2021/10/15 08:49:11;;;;;;;21.33;16.10;;;;;;;10.51;57.77;101036.86;1740365;81;21329;-62
2021/10/15 08:51:38;;;;;;;18.40;14.60;;;;;;;10.59;57.05;101024.83;1743026;81;21079;-62
2021/10/15 08:54:04;;;;;;;17.80;15.30;;;;;;;10.67;56.30;101027.45;1744826;80;21278;-62
2021/10/15 08:56:34;;;;;;;18.63;13.83;;;;;;;10.70;55.27;101015.12;1747812;80;21283;-63
2021/10/15 08:59:05;;;;;;;20.60;15.67;;;;;;;10.86;55.56;101026.22;1734533;80;21016;-65
2021/10/15 09:01:42;;;;;;;14.30;12.00;;;;;;;11.00;54.89;101022.48;1745695;80;21008;-65
2021/10/15 09:04:08;;;;;;;17.87;13.27;;;;;;;11.07;54.59;101013.61;1754293;80;21695;-65
2021/10/15 09:06:39;;;;;;;12.37;10.73;;;;;;;11.33;52.91;101019.66;1746401;81;21020;-63
2021/10/15 09:09:06;;;;;;;17.62;13.00;;;;;;;11.47;51.12;101015.72;1754092;80;21095;-64
2021/10/15 09:11:38;;;;;;;13.80;12.28;;;;;;;11.63;51.62;101016.09;1757234;80;21639;-64
2021/10/15 09:14:22;;;;;;;15.63;13.32;;;;;;;11.73;51.91;101014.51;1717830;81;21344;-63
2021/10/15 09:17:25;;;;;;;16.35;12.10;;;;;;;11.77;51.08;101005.63;1720008;82;21057;-62
2021/10/15 09:19:52;;;;;;;11.88;10.05;;;;;;;11.94;51.23;101014.38;1721761;82;21041;-64
2021/10/15 09:22:28;;;;;;;13.83;11.08;;;;;;;12.05;49.86;101008.59;1720966;82;21061;-61
2021/10/15 09:25:11;;;;;;;15.53;11.10;;;;;;;12.16;50.09;101004.66;1756001;81;21024;-61
2021/10/15 09:27:50;;;;;;;11.08;9.90;;;;;;;12.26;49.84;101000.71;1752885;81;21404;-60
2021/10/15 09:30:22;;;;;;;13.32;8.35;;;;;;;12.36;48.84;101000.44;1742263;81;21080;-62
2021/10/15 09:32:52;;;;;;;11.93;9.08;;;;;;;12.43;47.53;101001.84;1711811;82;21119;-62
2021/10/15 09:35:22;;;;;;;13.13;9.30;;;;;;;12.46;47.43;101001.48;1714249;82;21721;-62
2021/10/15 09:37:54;;;;;;;12.40;8.98;;;;;;;12.46;46.79;101004.16;1713380;82;21069;-61
2021/10/15 09:40:24;;;;;;;10.72;7.67;;;;;;;12.45;46.77;100997.14;1708372;82;21084;-62
2021/10/15 09:42:58;;;;;;;8.63;7.72;;;;;;;12.45;46.73;100995.32;1703526;82;21025;-62
2021/10/15 09:45:29;;;;;;;8.45;7.65;;;;;;;12.53;46.13;100985.55;1692762;84;21403;-62
2021/10/15 09:47:59;;;;;;;8.65;7.67;;;;;;;12.53;46.22;100978.35;1675103;84;21846;-63
2021/10/15 09:50:33;;;;;;;7.65;6.83;;;;;;;12.68;45.27;100985.52;1683473;84;21937;-63
2021/10/15 09:53:04;;;;;;;7.20;6.50;;;;;;;12.76;45.68;100981.42;1688165;84;21443;-62
2021/10/15 09:55:38;;;;;;;6.25;5.67;;;;;;;12.83;44.49;100978.32;1683605;82;21751;-62
2021/10/15 09:58:20;;;;;;;6.85;6.25;;;;;;;12.90;44.55;100969.84;1701780;82;21355;-62
2021/10/15 10:00:50;;;;;;;9.50;6.67;;;;;;;12.94;43.96;100968.47;1720100;81;21787;-62
2021/10/15 10:03:19;;;;;;;15.03;6.28;;;;;;;12.99;43.98;100966.03;1720552;81;21061;-60
2021/10/15 10:05:49;;;;;;;9.18;6.58;;;;;;;12.99;43.84;100956.67;1705522;82;21326;-63
2021/10/15 10:08:15;;;;;;;8.85;5.78;;;;;;;13.03;43.66;100964.66;1734714;81;20992;-63
2021/10/15 10:10:43;;;;;;;8.50;5.83;;;;;;;13.08;44.09;100953.90;1718524;82;21868;-63
2021/10/15 10:13:15;;;;;;;5.22;4.72;;;;;;;13.16;43.61;100949.75;1726116;82;21295;-61
2021/10/15 10:15:45;;;;;;;6.30;4.95;;;;;;;13.25;43.67;100946.75;1731972;81;21303;-61
2021/10/15 10:18:33;;;;;;;5.85;4.92;;;;;;;13.34;43.40;100948.83;1675816;84;21053;-62
2021/10/15 10:21:09;;;;;;;5.20;4.75;;;;;;;13.41;43.35;100949.73;1701143;82;21041;-62
2021/10/15 10:23:49;;;;;;;7.40;4.25;;;;;;;13.48;42.20;100936.91;1686328;82;21048;-60
2021/10/15 10:26:21;;;;;;;4.87;4.47;;;;;;;13.53;41.94;100928.61;1663984;84;21085;-60
2021/10/15 10:29:02;;;;;;;4.92;4.22;;;;;;;13.55;41.56;100932.44;1671956;84;21061;-61
2021/10/15 10:31:28;;;;;;;3.77;3.47;;;;;;;13.54;41.39;100928.09;1673681;84;21830;-60
2021/10/15 10:34:01;;;;;;;6.75;4.37;;;;;;;13.50;41.74;100924.14;1662336;84;21159;-62
2021/10/15 10:36:30;;;;;;;5.92;4.12;;;;;;;13.52;41.78;100922.10;1660550;84;21131;-61
2021/10/15 10:38:56;;;;;;;5.35;4.60;;;;;;;13.55;41.69;100927.08;1668577;84;21060;-61
2021/10/15 10:41:27;;;;;;;7.50;4.60;;;;;;;13.53;41.31;100925.93;1679937;83;21445;-62
2021/10/15 10:43:59;;;;;;;5.97;5.10;;;;;;;13.52;41.27;100923.44;1662806;84;21861;-61
2021/10/15 10:46:29;;;;;;;4.78;4.40;;;;;;;13.48;41.19;100910.94;1681695;83;21096;-61
2021/10/15 10:49:03;;;;;;;5.20;4.80;;;;;;;13.42;41.16;100910.39;1662324;84;21912;-62
2021/10/15 10:51:32;;;;;;;6.87;5.27;;;;;;;13.42;41.65;100913.06;1686882;83;21079;-61
2021/10/15 10:54:23;;;;;;;4.25;3.92;;;;;;;13.39;41.62;100912.09;1678676;83;21120;-61
2021/10/15 10:56:50;;;;;;;5.22;4.72;;;;;;;13.37;41.32;100901.61;1681863;82;21161;-62
2021/10/15 10:59:30;;;;;;;7.30;4.72;;;;;;;13.37;41.34;100908.30;1662296;84;21030;-63
2021/10/15 11:02:14;;;;;;;9.35;5.62;;;;;;;13.33;41.40;100907.52;1634483;85;21013;-62
2021/10/15 11:04:52;;;;;;;10.75;4.97;;;;;;;13.37;41.73;100908.30;1631967;87;21420;-61
2021/10/15 11:07:22;;;;;;;4.72;4.33;;;;;;;13.35;41.94;100900.12;1623181;85;21096;-62
2021/10/15 11:09:59;;;;;;;4.67;4.37;;;;;;;13.43;41.54;100912.88;1612035;87;21159;-64
2021/10/15 11:12:34;;;;;;;5.45;4.97;;;;;;;13.49;41.66;100899.74;1653673;84;21148;-63
2021/10/15 11:15:06;;;;;;;4.62;4.22;;;;;;;13.53;41.15;100896.98;1640878;85;21096;-62
2021/10/15 11:17:41;;;;;;;7.03;4.37;;;;;;;13.58;41.08;100899.89;1636341;85;21123;-62
2021/10/15 11:20:35;;;;;;;7.70;4.40;;;;;;;13.60;40.79;100895.20;1641024;85;21183;-63
2021/10/15 11:23:10;;;;;;;4.47;3.77;;;;;;;13.62;40.45;100886.45;1644079;84;21247;-61
2021/10/15 11:25:41;;;;;;;4.17;3.87;;;;;;;13.65;40.38;100890.58;1636914;85;21158;-61
2021/10/15 11:28:12;;;;;;;5.85;3.75;;;;;;;13.64;39.84;100888.42;1645956;85;21077;-62
2021/10/15 11:30:44;;;;;;;3.92;3.62;;;;;;;13.66;40.01;100888.23;1682594;84;21100;-61
2021/10/15 11:33:17;;;;;;;3.77;3.52;;;;;;;13.67;39.58;100880.50;1671503;83;21076;-61
2021/10/15 11:35:50;;;;;;;7.62;3.87;;;;;;;13.68;39.76;100877.63;1664807;84;21064;-61
2021/10/15 11:38:20;;;;;;;8.18;4.67;;;;;;;13.70;39.61;100867.54;1617598;85;21361;-61
2021/10/15 11:40:55;;;;;;;4.90;4.50;;;;;;;13.71;39.32;100857.16;1643845;85;21075;-61
2021/10/15 11:43:28;;;;;;;3.83;3.52;;;;;;;13.71;39.42;100867.02;1667276;84;21323;-61
2021/10/15 11:46:06;;;;;;;5.30;3.85;;;;;;;13.70;39.57;100862.70;1665718;84;21037;-62